createdAt,value
2018-09-08T00:00:55.919Z,13.47
2018-09-08T00:03:24.260Z,12.90
2018-09-08T00:05:52.674Z,11.50
2018-09-08T00:08:21.201Z,12.47
2018-09-08T00:10:49.515Z,13.70
2018-09-08T00:13:17.924Z,12.20
2018-09-08T00:15:51.611Z,13.63
2018-09-08T00:18:25.289Z,12.27
2018-09-08T00:20:59.035Z,12.77
2018-09-08T00:23:32.595Z,11.13
2018-09-08T00:26:06.418Z,12.33
2018-09-08T00:28:40.222Z,12.40
2018-09-08T00:31:12.310Z,11.77
2018-09-08T00:33:40.854Z,10.77
2018-09-08T00:36:09.222Z,11.20
2018-09-08T00:38:37.619Z,11.00
2018-09-08T00:41:06.140Z,11.60
2018-09-08T00:43:34.490Z,9.60
2018-09-08T00:46:02.935Z,11.60
2018-09-08T00:48:31.405Z,11.73
2018-09-08T00:50:59.948Z,11.10
2018-09-08T00:53:28.406Z,10.53
2018-09-08T00:55:56.802Z,10.90
2018-09-08T00:58:25.352Z,11.03
2018-09-08T01:00:53.767Z,11.27
2018-09-08T01:03:22.191Z,11.40
2018-09-08T01:05:50.321Z,11.87
2018-09-08T01:08:18.739Z,11.60
2018-09-08T01:10:47.114Z,11.50
2018-09-08T01:13:15.477Z,11.17
2018-09-08T01:15:43.940Z,10.63
2018-09-08T01:18:12.317Z,11.07
2018-09-08T01:20:40.712Z,10.33
2018-09-08T01:23:09.943Z,10.57
2018-09-08T01:25:38.768Z,10.30
2018-09-08T01:28:07.272Z,9.97
2018-09-08T01:30:35.357Z,11.10
2018-09-08T01:33:04.055Z,11.67
2018-09-08T01:40:23.733Z,11.50
2018-09-08T01:42:52.056Z,11.27
2018-09-08T01:45:20.434Z,11.20
2018-09-08T01:47:48.834Z,10.30
2018-09-08T01:50:17.238Z,11.10
2018-09-08T01:52:45.603Z,11.53
2018-09-08T01:55:14.059Z,10.37
2018-09-08T01:58:45.320Z,11.33
2018-09-08T02:01:13.710Z,10.73
2018-09-08T02:03:42.334Z,9.57
2018-09-08T02:06:10.754Z,10.70
2018-09-08T02:08:39.346Z,11.70
2018-09-08T02:11:07.907Z,11.27
2018-09-08T02:13:36.334Z,11.20
2018-09-08T02:16:04.762Z,11.93
2018-09-08T02:18:33.298Z,12.10
2018-09-08T02:21:01.429Z,11.13
2018-09-08T02:23:29.793Z,10.27
2018-09-08T02:25:58.234Z,10.33
2018-09-08T02:28:26.540Z,10.47
2018-09-08T02:30:55.022Z,9.60
2018-09-08T02:33:23.317Z,9.77
2018-09-08T02:35:51.724Z,10.60
2018-09-08T02:38:20.134Z,9.50
2018-09-08T02:40:48.597Z,9.90
2018-09-08T02:43:16.948Z,8.77
2018-09-08T02:45:45.368Z,8.63
2018-09-08T02:48:13.721Z,8.97
2018-09-08T02:50:41.913Z,9.37
2018-09-08T02:53:10.651Z,8.63
2018-09-08T02:55:38.471Z,7.90
2018-09-08T02:58:06.096Z,8.93
2018-09-08T03:00:33.689Z,9.63
2018-09-08T03:03:00.988Z,9.70
2018-09-08T03:05:28.299Z,8.60
2018-09-08T03:07:55.568Z,8.53
2018-09-08T03:10:22.994Z,7.67
2018-09-08T03:12:50.316Z,7.30
2018-09-08T03:15:17.623Z,7.43
2018-09-08T03:17:44.970Z,7.40
2018-09-08T03:20:12.244Z,6.77
2018-09-08T03:22:39.631Z,6.53
2018-09-08T03:25:06.904Z,7.10
2018-09-08T03:27:34.215Z,5.80
2018-09-08T03:30:01.527Z,5.53
2018-09-08T03:32:28.837Z,5.80
2018-09-08T03:34:56.146Z,7.00
2018-09-08T03:37:23.410Z,5.80
2018-09-08T03:39:50.660Z,6.60
2018-09-08T03:42:17.930Z,6.43
2018-09-08T03:44:45.265Z,5.30
2018-09-08T03:47:12.555Z,6.70
2018-09-08T03:49:39.837Z,6.40
2018-09-08T03:52:07.135Z,5.87
2018-09-08T03:54:34.438Z,5.50
2018-09-08T03:57:01.731Z,7.30
2018-09-08T03:59:29.019Z,7.67
2018-09-08T04:01:56.571Z,7.37
2018-09-08T04:04:24.980Z,7.97
2018-09-08T04:06:53.352Z,7.20
2018-09-08T04:09:21.754Z,6.13
2018-09-08T04:11:50.280Z,7.57
2018-09-08T04:14:18.669Z,8.33
2018-09-08T04:16:47.144Z,7.60
2018-09-08T04:19:15.592Z,5.50
2018-09-08T04:21:43.948Z,8.27
2018-09-08T04:24:12.339Z,7.03
2018-09-08T04:26:40.705Z,5.70
2018-09-08T04:29:09.080Z,5.70
2018-09-08T04:31:37.551Z,5.70
2018-09-08T04:34:05.912Z,5.03
2018-09-08T04:36:34.308Z,5.30
2018-09-08T04:39:02.754Z,6.40
2018-09-08T04:41:31.312Z,6.13
2018-09-08T04:43:59.674Z,7.00
2018-09-08T04:46:28.061Z,6.03
2018-09-08T04:48:56.432Z,7.63
2018-09-08T04:51:24.840Z,6.57
2018-09-08T04:53:53.278Z,21.67
2018-09-08T04:56:21.625Z,8.13
2018-09-08T04:58:50.189Z,13.63
2018-09-08T05:01:18.287Z,8.87
2018-09-08T05:03:47.355Z,7.50
2018-09-08T05:06:15.738Z,8.17
2018-09-08T05:08:44.159Z,7.97
2018-09-08T05:11:12.212Z,7.33
2018-09-08T05:13:40.570Z,8.10
2018-09-08T05:16:09.073Z,10.10
2018-09-08T05:18:37.489Z,9.80
2018-09-08T05:21:05.893Z,8.57
2018-09-08T05:23:34.244Z,10.10
2018-09-08T05:26:02.680Z,12.50
2018-09-08T05:28:31.219Z,11.37
2018-09-08T05:30:59.611Z,12.30
2018-09-08T05:33:28.094Z,12.67
2018-09-08T05:35:56.575Z,12.27
2018-09-08T05:38:24.934Z,9.97
2018-09-08T05:40:53.295Z,10.10
2018-09-08T05:43:21.669Z,9.40
2018-09-08T05:45:50.493Z,10.77
2018-09-08T05:48:18.883Z,10.57
2018-09-08T05:50:47.407Z,10.23
2018-09-08T05:53:15.797Z,10.70
2018-09-08T05:55:44.142Z,10.13
2018-09-08T05:58:12.382Z,9.37
2018-09-08T06:00:40.761Z,9.43
2018-09-08T06:03:09.100Z,9.30
2018-09-08T06:05:37.655Z,9.57
2018-09-08T06:08:05.852Z,10.60
2018-09-08T06:10:34.120Z,9.37
2018-09-08T06:13:02.565Z,8.90
2018-09-08T06:15:31.317Z,9.60
2018-09-08T06:17:59.699Z,11.87
2018-09-08T06:20:28.165Z,11.83
2018-09-08T06:22:57.551Z,11.00
2018-09-08T06:25:25.826Z,10.40
2018-09-08T06:27:54.048Z,11.33
2018-09-08T06:30:22.406Z,11.27
2018-09-08T06:32:50.770Z,11.13
2018-09-08T06:35:19.251Z,10.30
2018-09-08T06:37:47.351Z,9.57
2018-09-08T06:40:15.631Z,11.13
2018-09-08T06:42:43.986Z,10.73
2018-09-08T06:45:12.354Z,10.50
2018-09-08T06:47:40.547Z,11.03
2018-09-08T06:50:08.779Z,10.57
2018-09-08T06:52:36.989Z,10.60
2018-09-08T06:55:05.403Z,11.73
2018-09-08T06:57:33.646Z,12.50
2018-09-08T07:00:01.893Z,13.90
2018-09-08T07:02:30.175Z,15.17
2018-09-08T07:04:58.386Z,15.77
2018-09-08T07:07:26.717Z,16.27
2018-09-08T07:09:54.944Z,16.80
2018-09-08T07:12:23.311Z,15.73
2018-09-08T07:14:51.507Z,14.13
2018-09-08T07:17:19.739Z,16.23
2018-09-08T07:19:48.051Z,13.83
2018-09-08T07:22:16.311Z,15.00
2018-09-08T07:24:44.556Z,14.67
2018-09-08T07:27:12.759Z,12.90
2018-09-08T07:29:41.004Z,12.00
2018-09-08T07:32:09.271Z,10.53
2018-09-08T07:34:37.522Z,9.93
2018-09-08T07:37:05.810Z,9.33
2018-09-08T07:39:34.056Z,9.93
2018-09-08T07:42:02.287Z,8.47
2018-09-08T07:44:30.585Z,8.70
2018-09-08T07:46:58.876Z,10.33
2018-09-08T07:49:27.082Z,9.40
2018-09-08T07:51:55.307Z,9.10
2018-09-08T07:54:23.597Z,7.77
2018-09-08T07:57:55.314Z,10.80
2018-09-08T08:01:26.928Z,7.93
2018-09-08T08:03:55.275Z,8.20
2018-09-08T08:06:23.493Z,8.20
2018-09-08T08:08:52.235Z,8.23
2018-09-08T08:11:20.504Z,8.60
2018-09-08T08:13:48.891Z,7.17
2018-09-08T08:16:17.077Z,7.33
2018-09-08T08:18:45.268Z,7.90
2018-09-08T08:21:13.483Z,7.40
2018-09-08T08:23:41.760Z,7.80
2018-09-08T08:26:09.946Z,7.00
2018-09-08T08:28:38.260Z,6.67
2018-09-08T08:31:06.619Z,7.00
2018-09-08T08:33:34.828Z,6.37
2018-09-08T08:36:03.199Z,7.30
2018-09-08T08:38:31.620Z,7.20
2018-09-08T08:41:00.055Z,7.10
2018-09-08T08:43:28.336Z,7.40
2018-09-08T08:45:56.624Z,7.80
2018-09-08T08:48:24.983Z,6.70
2018-09-08T08:51:04.751Z,6.77
2018-09-08T08:53:44.395Z,8.03
2018-09-08T08:56:12.426Z,7.70
2018-09-08T08:58:40.708Z,7.30
2018-09-08T09:01:08.729Z,7.63
2018-09-08T09:03:36.986Z,7.63
2018-09-08T09:06:05.278Z,7.23
2018-09-08T09:08:34.074Z,8.90
2018-09-08T09:11:01.718Z,7.77
2018-09-08T09:13:30.008Z,7.53
2018-09-08T09:15:58.209Z,10.50
2018-09-08T09:18:38.840Z,7.63
2018-09-08T09:21:18.064Z,6.90
2018-09-08T09:24:25.836Z,7.60
2018-09-08T09:26:53.527Z,7.23
2018-09-08T09:29:21.782Z,7.20
2018-09-08T09:31:50.047Z,6.70
2018-09-08T09:34:18.358Z,7.20
2018-09-08T09:36:46.632Z,7.00
2018-09-08T09:39:14.871Z,7.00
2018-09-08T09:41:43.421Z,8.23
2018-09-08T09:44:12.164Z,6.50
2018-09-08T09:46:40.522Z,6.83
2018-09-08T09:49:08.742Z,7.67
2018-09-08T09:51:37.054Z,7.50
2018-09-08T09:54:05.315Z,6.57
2018-09-08T09:56:33.707Z,6.70
2018-09-08T09:59:02.023Z,7.10
2018-09-08T10:01:35.835Z,6.63
2018-09-08T10:04:04.087Z,6.47
2018-09-08T10:06:32.390Z,6.77
2018-09-08T10:09:00.710Z,7.23
2018-09-08T10:11:29.010Z,6.20
2018-09-08T10:13:57.013Z,6.90
2018-09-08T10:16:25.297Z,6.97
2018-09-08T10:18:53.543Z,6.63
2018-09-08T10:21:21.810Z,6.10
2018-09-08T10:24:04.340Z,6.63
2018-09-08T10:26:18.467Z,6.33
2018-09-08T10:28:46.619Z,6.27
2018-09-08T10:31:14.803Z,6.60
2018-09-08T10:33:44.102Z,7.33
2018-09-08T10:36:12.387Z,5.50
2018-09-08T10:38:40.643Z,6.10
2018-09-08T10:41:08.830Z,8.00
2018-09-08T10:43:37.119Z,6.40
2018-09-08T10:46:05.465Z,6.50
2018-09-08T10:48:33.872Z,6.37
2018-09-08T10:51:19.316Z,5.73
2018-09-08T10:53:48.583Z,6.23
2018-09-08T10:56:16.818Z,6.33
2018-09-08T10:58:45.183Z,5.27
2018-09-08T11:01:13.440Z,5.97
2018-09-08T11:03:41.949Z,5.83
2018-09-08T11:06:10.393Z,6.10
2018-09-08T11:08:38.865Z,6.07
2018-09-08T11:11:07.346Z,6.23
2018-09-08T11:13:35.837Z,5.43
2018-09-08T11:16:04.489Z,5.73
2018-09-08T11:18:32.964Z,6.87
2018-09-08T11:21:01.433Z,5.00
2018-09-08T11:23:29.615Z,6.70
2018-09-08T11:25:58.133Z,5.60
2018-09-08T11:28:26.587Z,5.80
2018-09-08T11:30:55.062Z,6.10
2018-09-08T11:33:23.330Z,6.10
2018-09-08T11:35:51.847Z,5.73
2018-09-08T11:38:20.182Z,5.83
2018-09-08T11:40:48.355Z,5.43
2018-09-08T11:43:16.605Z,5.70
2018-09-08T11:45:44.910Z,6.20
2018-09-08T11:48:13.204Z,5.67
2018-09-08T11:50:41.503Z,6.20
2018-09-08T11:53:09.750Z,6.47
2018-09-08T11:55:38.091Z,6.30
2018-09-08T11:58:06.219Z,5.37
2018-09-08T12:00:34.396Z,4.93
2018-09-08T12:03:02.679Z,6.47
2018-09-08T12:05:30.823Z,5.80
2018-09-08T12:07:59.032Z,6.57
2018-09-08T12:10:27.236Z,5.00
2018-09-08T12:12:55.448Z,4.93
2018-09-08T12:15:23.685Z,5.17
2018-09-08T12:17:51.979Z,5.63
2018-09-08T12:20:19.919Z,4.60
2018-09-08T12:22:47.929Z,5.10
2018-09-08T12:25:15.900Z,5.23
2018-09-08T12:27:44.200Z,4.33
2018-09-08T12:30:12.428Z,5.20
2018-09-08T12:32:40.715Z,5.60
2018-09-08T12:35:09.028Z,5.17
2018-09-08T12:37:37.263Z,5.17
2018-09-08T12:40:05.708Z,5.80
2018-09-08T12:42:34.143Z,6.23
2018-09-08T12:45:02.749Z,5.40
2018-09-08T12:47:31.215Z,5.93
2018-09-08T12:49:59.810Z,5.20
2018-09-08T12:52:28.234Z,6.73
2018-09-08T12:54:56.668Z,5.03
2018-09-08T12:57:25.257Z,5.10
2018-09-08T12:59:53.741Z,5.07
2018-09-08T13:02:22.227Z,5.33
2018-09-08T13:04:50.796Z,5.47
2018-09-08T13:07:19.385Z,5.00
2018-09-08T13:09:47.860Z,5.03
2018-09-08T13:12:16.439Z,5.27
2018-09-08T13:14:44.913Z,4.37
2018-09-08T13:17:13.480Z,5.60
2018-09-08T13:19:42.018Z,4.77
2018-09-08T13:22:10.658Z,4.70
2018-09-08T13:24:39.190Z,5.60
2018-09-08T13:27:13.794Z,4.40
2018-09-08T13:29:41.986Z,4.40
2018-09-08T13:32:10.490Z,4.70
2018-09-08T13:34:39.033Z,4.30
2018-09-08T13:37:07.723Z,5.03
2018-09-08T13:39:36.192Z,5.03
2018-09-08T13:42:04.628Z,4.77
2018-09-08T13:44:33.130Z,4.70
2018-09-08T13:47:01.717Z,4.60
2018-09-08T13:49:30.045Z,5.03
2018-09-08T13:51:58.157Z,4.90
2018-09-08T13:54:26.658Z,4.47
2018-09-08T13:56:55.098Z,4.13
2018-09-08T13:59:23.593Z,5.17
2018-09-08T14:01:51.812Z,5.17
2018-09-08T14:04:20.403Z,4.60
2018-09-08T14:06:48.956Z,4.67
2018-09-08T14:09:17.347Z,4.87
2018-09-08T14:11:45.974Z,4.60
2018-09-08T14:14:14.448Z,4.80
2018-09-08T14:16:42.914Z,4.47
2018-09-08T14:19:11.281Z,4.80
2018-09-08T14:21:39.789Z,4.83
2018-09-08T14:24:07.910Z,4.40
2018-09-08T14:26:36.418Z,4.80
2018-09-08T14:29:05.028Z,4.43
2018-09-08T14:31:33.134Z,4.90
2018-09-08T14:34:01.291Z,4.87
2018-09-08T14:36:29.840Z,4.80
2018-09-08T14:38:58.416Z,4.40
2018-09-08T14:41:26.975Z,4.57
2018-09-08T14:43:55.404Z,4.83
2018-09-08T14:46:23.969Z,4.53
2018-09-08T14:48:52.085Z,4.60
2018-09-08T14:51:20.617Z,4.60
2018-09-08T14:53:49.065Z,4.97
2018-09-08T14:56:17.626Z,4.57
2018-09-08T14:58:46.021Z,4.60
2018-09-08T15:01:14.461Z,4.70
2018-09-08T15:03:42.950Z,4.83
2018-09-08T15:06:11.430Z,4.10
2018-09-08T15:08:40.027Z,4.80
2018-09-08T15:11:08.548Z,4.33
2018-09-08T15:13:37.131Z,4.20
2018-09-08T15:16:05.607Z,4.50
2018-09-08T15:18:34.067Z,3.80
2018-09-08T15:21:02.637Z,4.50
2018-09-08T15:23:31.261Z,4.00
2018-09-08T15:25:59.818Z,5.07
2018-09-08T15:28:28.312Z,4.53
2018-09-08T15:30:56.446Z,4.40
2018-09-08T15:33:25.062Z,4.70
2018-09-08T15:35:53.569Z,3.73
2018-09-08T15:38:22.029Z,4.60
2018-09-08T15:40:50.523Z,4.63
2018-09-08T15:43:18.787Z,4.70
2018-09-08T15:45:47.493Z,4.40
2018-09-08T15:48:16.047Z,5.90
2018-09-08T15:50:44.547Z,5.67
2018-09-08T15:53:13.146Z,5.17
2018-09-08T15:55:41.422Z,5.20
2018-09-08T15:58:10.092Z,5.73
2018-09-08T16:00:38.556Z,5.30
2018-09-08T16:03:07.168Z,5.20
2018-09-08T16:05:35.737Z,4.30
2018-09-08T16:08:05.464Z,5.20
2018-09-08T16:10:36.841Z,5.50
2018-09-08T16:13:06.126Z,5.77
2018-09-08T16:15:34.788Z,5.60
2018-09-08T16:19:06.149Z,5.30
2018-09-08T16:21:34.770Z,5.07
2018-09-08T16:24:03.319Z,5.53
2018-09-08T16:26:32.593Z,5.90
2018-09-08T16:29:01.222Z,4.80
2018-09-08T16:31:29.957Z,4.90
2018-09-08T16:33:58.505Z,4.70
2018-09-08T16:36:27.154Z,5.07
2018-09-08T16:38:55.718Z,5.40
2018-09-08T16:41:24.710Z,5.57
2018-09-08T16:43:53.307Z,4.80
2018-09-08T16:46:21.804Z,5.90
2018-09-08T16:48:50.329Z,5.93
2018-09-08T16:51:18.868Z,5.47
2018-09-08T16:53:47.299Z,5.30
2018-09-08T16:56:15.909Z,5.40
2018-09-08T16:58:44.388Z,4.97
2018-09-08T17:01:13.095Z,4.80
2018-09-08T17:03:41.621Z,5.10
2018-09-08T17:06:10.128Z,5.50
2018-09-08T17:08:38.541Z,5.33
2018-09-08T17:11:07.099Z,5.53
2018-09-08T17:15:04.890Z,5.30
2018-09-08T17:17:33.442Z,5.00
2018-09-08T17:20:01.955Z,5.33
2018-09-08T17:22:30.502Z,5.70
2018-09-08T17:24:59.031Z,5.53
2018-09-08T17:27:27.491Z,5.20
2018-09-08T17:29:55.937Z,6.00
2018-09-08T17:32:24.619Z,7.20
2018-09-08T17:34:53.080Z,6.10
2018-09-08T17:37:21.588Z,6.10
2018-09-08T17:39:52.784Z,5.00
2018-09-08T17:49:32.480Z,5.60
2018-09-08T17:54:50.337Z,5.73
2018-09-08T18:11:00.131Z,7.10
2018-09-08T18:13:28.572Z,7.00
2018-09-08T18:15:56.995Z,6.23
2018-09-08T18:18:25.319Z,7.53
2018-09-08T18:20:53.706Z,8.93
2018-09-08T18:23:22.031Z,9.90
2018-09-08T18:25:50.508Z,11.40
2018-09-08T18:28:18.859Z,10.83
2018-09-08T18:30:47.305Z,7.80
2018-09-08T18:33:15.731Z,7.50
2018-09-08T18:35:44.185Z,8.03
2018-09-08T18:38:12.590Z,7.87
2018-09-08T18:40:40.686Z,7.60
2018-09-08T18:43:09.106Z,7.60
2018-09-08T18:45:37.503Z,7.30
2018-09-08T18:48:05.920Z,7.50
2018-09-08T18:50:34.235Z,7.40
2018-09-08T18:53:02.636Z,8.10
2018-09-08T18:55:31.118Z,7.50
2018-09-08T18:57:59.494Z,8.03
2018-09-08T19:00:27.839Z,7.00
2018-09-08T19:02:56.245Z,7.73
2018-09-08T19:05:24.732Z,8.33
2018-09-08T19:07:53.155Z,8.00
2018-09-08T19:10:21.561Z,8.13
2018-09-08T19:12:49.995Z,8.03
2018-09-08T19:15:18.972Z,8.20
2018-09-08T19:17:47.290Z,8.00
2018-09-08T19:20:20.983Z,9.03
2018-09-08T19:22:49.398Z,7.80
2018-09-08T19:25:17.765Z,8.47
2018-09-08T19:27:46.161Z,8.33
2018-09-08T19:30:14.524Z,8.93
2018-09-08T19:32:42.925Z,12.37
2018-09-08T19:35:16.671Z,13.70
2018-09-08T19:37:45.047Z,12.47
2018-09-08T19:40:18.767Z,11.90
2018-09-08T19:42:47.144Z,10.50
2018-09-08T19:45:15.556Z,9.87
2018-09-08T19:47:49.215Z,12.83
2018-09-08T19:50:17.532Z,11.07
2018-09-08T19:52:51.076Z,9.30
2018-09-08T19:55:19.448Z,7.80
2018-09-08T19:57:53.161Z,8.57
2018-09-08T20:00:21.167Z,8.93
2018-09-08T20:02:49.462Z,8.90
2018-09-08T20:05:17.747Z,8.97
2018-09-08T20:07:46.163Z,8.00
2018-09-08T20:10:14.485Z,9.30
2018-09-08T20:12:42.800Z,9.00
2018-09-08T20:15:11.119Z,9.87
2018-09-08T20:17:39.403Z,8.90
2018-09-08T20:20:07.679Z,8.90
2018-09-08T20:22:35.959Z,8.97
2018-09-08T20:25:04.351Z,8.80
2018-09-08T20:27:32.677Z,9.67
2018-09-08T20:30:01.000Z,9.10
2018-09-08T20:32:29.299Z,8.70
2018-09-08T20:36:00.823Z,8.53
2018-09-08T20:38:29.251Z,9.20
2018-09-08T20:40:57.528Z,9.70
2018-09-08T20:43:25.759Z,7.80
2018-09-08T20:45:54.068Z,9.27
2018-09-08T20:48:22.366Z,7.87
2018-09-08T20:50:50.604Z,8.50
2018-09-08T20:53:18.814Z,8.80
2018-09-08T20:55:47.142Z,8.50
2018-09-08T20:58:15.331Z,8.40
2018-09-08T21:00:43.619Z,8.90
2018-09-08T21:03:11.900Z,8.33
2018-09-08T21:05:39.911Z,7.10
2018-09-08T21:08:08.325Z,7.93
2018-09-08T21:10:36.618Z,7.73
2018-09-08T21:13:05.129Z,7.17
2018-09-08T21:15:33.528Z,7.13
2018-09-08T21:18:01.855Z,7.80
2018-09-08T21:20:30.356Z,7.93
2018-09-08T21:22:58.751Z,7.07
2018-09-08T21:25:27.208Z,8.60
2018-09-08T21:27:55.553Z,7.73
2018-09-08T21:30:23.791Z,7.83
2018-09-08T21:32:52.239Z,8.00
2018-09-08T21:35:20.552Z,7.03
2018-09-08T21:37:48.980Z,7.33
2018-09-08T21:40:17.262Z,6.60
2018-09-08T21:42:45.507Z,7.07
2018-09-08T21:45:13.796Z,7.23
2018-09-08T21:47:42.051Z,6.73
2018-09-08T21:50:10.407Z,7.30
2018-09-08T21:52:45.360Z,7.00
2018-09-08T21:55:13.571Z,6.73
2018-09-08T21:57:41.778Z,7.60
2018-09-08T22:00:10.005Z,7.60
2018-09-08T22:02:38.251Z,6.93
2018-09-08T22:05:06.570Z,6.97
2018-09-08T22:07:34.803Z,6.73
2018-09-08T22:10:03.174Z,7.00
2018-09-08T22:12:31.323Z,6.97
2018-09-08T22:14:59.550Z,7.23
2018-09-08T22:17:27.730Z,6.50
2018-09-08T22:19:56.119Z,7.80
2018-09-08T22:22:24.854Z,7.53
2018-09-08T22:24:53.131Z,6.60
2018-09-08T22:27:21.314Z,7.40
2018-09-08T22:29:49.539Z,7.07
2018-09-08T22:32:17.827Z,6.83
2018-09-08T22:34:46.024Z,6.70
2018-09-08T22:37:14.245Z,6.10
2018-09-08T22:39:42.645Z,6.23
2018-09-08T22:42:10.926Z,7.50
2018-09-08T22:44:39.178Z,7.90
2018-09-08T22:47:14.268Z,8.33
2018-09-08T22:49:42.545Z,7.60
2018-09-08T22:52:10.953Z,6.70
2018-09-08T22:54:39.266Z,7.70
2018-09-08T22:57:07.649Z,7.73
2018-09-08T22:59:35.885Z,7.63
2018-09-08T23:02:04.301Z,7.30
2018-09-08T23:04:32.541Z,7.43
2018-09-08T23:07:00.726Z,6.90
2018-09-08T23:09:29.051Z,7.40
2018-09-08T23:11:57.363Z,6.70
2018-09-08T23:14:25.621Z,6.50
2018-09-08T23:16:53.831Z,7.33
2018-09-08T23:19:21.786Z,7.20
2018-09-08T23:21:50.031Z,7.13
2018-09-08T23:24:18.388Z,7.70
2018-09-08T23:26:46.696Z,6.97
2018-09-08T23:29:14.923Z,7.33
2018-09-08T23:31:43.118Z,7.20
2018-09-08T23:34:11.414Z,8.37
2018-09-08T23:36:39.723Z,6.77
2018-09-08T23:39:08.049Z,6.93
2018-09-08T23:41:36.388Z,7.47
2018-09-08T23:44:04.729Z,6.90
2018-09-08T23:46:33.094Z,7.83
2018-09-08T23:49:01.298Z,7.97
2018-09-08T23:51:29.618Z,7.90
2018-09-08T23:53:57.832Z,7.77
2018-09-08T23:56:26.112Z,7.47
2018-09-08T23:58:54.382Z,8.80
